sensor_id;sensor_type;location;lat;lon;timestamp;temperature;humidity
66343;DHT22;53144;51.524;5.080;2023-04-03T00:01:33;2.03;93.45
66343;DHT22;53144;51.524;5.080;2023-04-03T00:03:58;1.91;93.09
66343;DHT22;53144;51.524;5.080;2023-04-03T00:06:25;1.86;93.35
66343;DHT22;53144;51.524;5.080;2023-04-03T00:08:50;1.83;92.94
66343;DHT22;53144;51.524;5.080;2023-04-03T00:11:17;1.90;93.55
66343;DHT22;53144;51.524;5.080;2023-04-03T00:13:43;1.94;93.69
66343;DHT22;53144;51.524;5.080;2023-04-03T00:16:09;1.77;93.48
66343;DHT22;53144;51.524;5.080;2023-04-03T00:18:36;1.69;93.14
66343;DHT22;53144;51.524;5.080;2023-04-03T00:21:02;1.70;93.41
66343;DHT22;53144;51.524;5.080;2023-04-03T00:23:27;1.76;93.73
66343;DHT22;53144;51.524;5.080;2023-04-03T00:25:53;1.63;93.35
66343;DHT22;53144;51.524;5.080;2023-04-03T00:28:19;1.42;93.84
66343;DHT22;53144;51.524;5.080;2023-04-03T00:30:44;1.46;93.99
66343;DHT22;53144;51.524;5.080;2023-04-03T00:33:13;1.40;93.49
66343;DHT22;53144;51.524;5.080;2023-04-03T00:35:38;1.39;93.71
66343;DHT22;53144;51.524;5.080;2023-04-03T00:38:04;1.34;93.55
66343;DHT22;53144;51.524;5.080;2023-04-03T00:40:37;1.24;93.94
66343;DHT22;53144;51.524;5.080;2023-04-03T00:43:11;1.18;93.62
66343;DHT22;53144;51.524;5.080;2023-04-03T00:45:40;1.24;93.93
66343;DHT22;53144;51.524;5.080;2023-04-03T00:48:08;1.22;93.86
66343;DHT22;53144;51.524;5.080;2023-04-03T00:50:37;1.17;93.83
66343;DHT22;53144;51.524;5.080;2023-04-03T00:53:04;1.15;93.90
66343;DHT22;53144;51.524;5.080;2023-04-03T00:55:31;1.14;93.78
66343;DHT22;53144;51.524;5.080;2023-04-03T00:57:58;1.27;94.50
66343;DHT22;53144;51.524;5.080;2023-04-03T01:00:26;1.15;94.21
66343;DHT22;53144;51.524;5.080;2023-04-03T01:02:51;1.11;94.92
66343;DHT22;53144;51.524;5.080;2023-04-03T01:05:19;1.07;94.61
66343;DHT22;53144;51.524;5.080;2023-04-03T01:07:45;1.07;94.34
66343;DHT22;53144;51.524;5.080;2023-04-03T01:10:14;1.15;94.24
66343;DHT22;53144;51.524;5.080;2023-04-03T01:12:42;1.08;94.25
66343;DHT22;53144;51.524;5.080;2023-04-03T01:15:21;1.15;94.39
66343;DHT22;53144;51.524;5.080;2023-04-03T01:25:49;1.36;93.94
66343;DHT22;53144;51.524;5.080;2023-04-03T01:28:21;1.36;93.99
66343;DHT22;53144;51.524;5.080;2023-04-03T01:30:56;1.40;94.01
66343;DHT22;53144;51.524;5.080;2023-04-03T01:33:24;1.43;93.86
66343;DHT22;53144;51.524;5.080;2023-04-03T01:35:49;1.59;94.12
66343;DHT22;53144;51.524;5.080;2023-04-03T01:38:15;1.53;93.96
66343;DHT22;53144;51.524;5.080;2023-04-03T01:40:41;1.58;93.80
66343;DHT22;53144;51.524;5.080;2023-04-03T01:43:06;1.59;93.90
66343;DHT22;53144;51.524;5.080;2023-04-03T01:45:31;1.66;94.12
66343;DHT22;53144;51.524;5.080;2023-04-03T01:47:57;1.66;93.72
66343;DHT22;53144;51.524;5.080;2023-04-03T01:50:22;1.73;93.40
66343;DHT22;53144;51.524;5.080;2023-04-03T01:52:47;1.77;93.30
66343;DHT22;53144;51.524;5.080;2023-04-03T01:55:13;1.80;93.53
66343;DHT22;53144;51.524;5.080;2023-04-03T01:57:38;1.83;93.47
66343;DHT22;53144;51.524;5.080;2023-04-03T02:00:04;1.91;93.30
66343;DHT22;53144;51.524;5.080;2023-04-03T02:02:30;1.83;92.93
66343;DHT22;53144;51.524;5.080;2023-04-03T02:04:55;1.84;93.06
66343;DHT22;53144;51.524;5.080;2023-04-03T02:07:21;2.03;93.04
66343;DHT22;53144;51.524;5.080;2023-04-03T02:09:46;2.06;92.77
66343;DHT22;53144;51.524;5.080;2023-04-03T02:12:11;2.06;92.67
66343;DHT22;53144;51.524;5.080;2023-04-03T02:14:37;2.03;92.44
66343;DHT22;53144;51.524;5.080;2023-04-03T02:17:02;2.01;92.81
66343;DHT22;53144;51.524;5.080;2023-04-03T02:19:30;2.03;92.68
66343;DHT22;53144;51.524;5.080;2023-04-03T02:21:56;2.08;92.58
66343;DHT22;53144;51.524;5.080;2023-04-03T02:24:21;1.93;92.24
66343;DHT22;53144;51.524;5.080;2023-04-03T02:26:47;1.83;92.08
66343;DHT22;53144;51.524;5.080;2023-04-03T02:29:12;1.86;92.29
66343;DHT22;53144;51.524;5.080;2023-04-03T02:31:37;1.81;92.37
66343;DHT22;53144;51.524;5.080;2023-04-03T02:34:03;1.77;92.17
66343;DHT22;53144;51.524;5.080;2023-04-03T02:36:28;1.73;92.44
66343;DHT22;53144;51.524;5.080;2023-04-03T02:38:53;1.76;92.55
66343;DHT22;53144;51.524;5.080;2023-04-03T02:41:19;1.71;92.48
66343;DHT22;53144;51.524;5.080;2023-04-03T02:43:46;1.66;92.53
66343;DHT22;53144;51.524;5.080;2023-04-03T02:46:11;1.55;92.35
66343;DHT22;53144;51.524;5.080;2023-04-03T02:48:36;1.62;92.77
66343;DHT22;53144;51.524;5.080;2023-04-03T02:51:02;1.62;92.78
66343;DHT22;53144;51.524;5.080;2023-04-03T02:53:27;1.64;92.68
66343;DHT22;53144;51.524;5.080;2023-04-03T02:55:53;1.66;92.61
66343;DHT22;53144;51.524;5.080;2023-04-03T02:58:18;1.70;92.58
66343;DHT22;53144;51.524;5.080;2023-04-03T03:00:43;1.69;92.39
66343;DHT22;53144;51.524;5.080;2023-04-03T03:03:09;1.70;92.50
66343;DHT22;53144;51.524;5.080;2023-04-03T03:05:34;1.76;92.43
66343;DHT22;53144;51.524;5.080;2023-04-03T03:08:01;1.77;92.62
66343;DHT22;53144;51.524;5.080;2023-04-03T03:10:26;1.89;91.87
66343;DHT22;53144;51.524;5.080;2023-04-03T03:12:52;1.90;92.04
66343;DHT22;53144;51.524;5.080;2023-04-03T03:15:17;1.87;92.12
66343;DHT22;53144;51.524;5.080;2023-04-03T03:17:44;1.87;92.03
66343;DHT22;53144;51.524;5.080;2023-04-03T03:20:10;1.81;92.16
66343;DHT22;53144;51.524;5.080;2023-04-03T03:22:36;1.80;92.24
66343;DHT22;53144;51.524;5.080;2023-04-03T03:25:02;1.73;92.30
66343;DHT22;53144;51.524;5.080;2023-04-03T03:27:28;1.73;92.37
66343;DHT22;53144;51.524;5.080;2023-04-03T03:29:53;1.64;92.26
66343;DHT22;53144;51.524;5.080;2023-04-03T03:32:19;1.56;92.29
66343;DHT22;53144;51.524;5.080;2023-04-03T03:34:44;1.58;92.43
66343;DHT22;53144;51.524;5.080;2023-04-03T03:37:10;1.52;92.39
66343;DHT22;53144;51.524;5.080;2023-04-03T03:39:35;1.50;92.60
66343;DHT22;53144;51.524;5.080;2023-04-03T03:42:00;1.39;92.39
66343;DHT22;53144;51.524;5.080;2023-04-03T03:44:26;1.36;92.50
66343;DHT22;53144;51.524;5.080;2023-04-03T03:46:54;1.36;92.58
66343;DHT22;53144;51.524;5.080;2023-04-03T03:49:19;1.38;92.57
66343;DHT22;53144;51.524;5.080;2023-04-03T03:51:44;1.49;92.37
66343;DHT22;53144;51.524;5.080;2023-04-03T03:54:10;1.46;92.26
66343;DHT22;53144;51.524;5.080;2023-04-03T03:56:36;1.48;92.28
66343;DHT22;53144;51.524;5.080;2023-04-03T03:59:01;1.53;92.22
66343;DHT22;53144;51.524;5.080;2023-04-03T04:01:26;1.52;92.31
66343;DHT22;53144;51.524;5.080;2023-04-03T04:03:52;1.49;92.11
66343;DHT22;53144;51.524;5.080;2023-04-03T04:06:19;1.46;92.28
66343;DHT22;53144;51.524;5.080;2023-04-03T04:08:44;1.46;92.14
66343;DHT22;53144;51.524;5.080;2023-04-03T04:11:10;1.43;92.38
66343;DHT22;53144;51.524;5.080;2023-04-03T04:13:35;1.40;92.17
66343;DHT22;53144;51.524;5.080;2023-04-03T04:16:00;1.38;92.44
66343;DHT22;53144;51.524;5.080;2023-04-03T04:18:26;1.43;92.18
66343;DHT22;53144;51.524;5.080;2023-04-03T04:20:51;1.49;92.19
66343;DHT22;53144;51.524;5.080;2023-04-03T04:23:17;1.55;91.85
66343;DHT22;53144;51.524;5.080;2023-04-03T04:25:47;1.63;91.88
66343;DHT22;53144;51.524;5.080;2023-04-03T04:28:13;1.64;91.80
66343;DHT22;53144;51.524;5.080;2023-04-03T04:30:38;1.63;91.64
66343;DHT22;53144;51.524;5.080;2023-04-03T04:33:04;1.56;91.70
66343;DHT22;53144;51.524;5.080;2023-04-03T04:35:30;1.60;91.30
66343;DHT22;53144;51.524;5.080;2023-04-03T04:37:55;1.66;90.97
66343;DHT22;53144;51.524;5.080;2023-04-03T04:40:21;1.56;91.22
66343;DHT22;53144;51.524;5.080;2023-04-03T04:42:47;1.59;91.26
66343;DHT22;53144;51.524;5.080;2023-04-03T04:45:12;1.56;90.81
66343;DHT22;53144;51.524;5.080;2023-04-03T04:47:38;1.59;91.21
66343;DHT22;53144;51.524;5.080;2023-04-03T04:50:04;1.55;91.12
66343;DHT22;53144;51.524;5.080;2023-04-03T04:52:29;1.50;91.22
66343;DHT22;53144;51.524;5.080;2023-04-03T04:54:55;1.52;90.90
66343;DHT22;53144;51.524;5.080;2023-04-03T04:57:20;1.58;90.95
66343;DHT22;53144;51.524;5.080;2023-04-03T04:59:45;1.56;90.92
66343;DHT22;53144;51.524;5.080;2023-04-03T05:02:11;1.53;91.10
66343;DHT22;53144;51.524;5.080;2023-04-03T05:04:36;1.43;91.19
66343;DHT22;53144;51.524;5.080;2023-04-03T05:07:01;1.43;91.55
66343;DHT22;53144;51.524;5.080;2023-04-03T05:09:27;1.40;91.76
66343;DHT22;53144;51.524;5.080;2023-04-03T05:11:52;1.46;91.49
66343;DHT22;53144;51.524;5.080;2023-04-03T05:14:18;1.53;91.29
66343;DHT22;53144;51.524;5.080;2023-04-03T05:16:43;1.53;91.11
66343;DHT22;53144;51.524;5.080;2023-04-03T05:19:08;1.52;91.21
66343;DHT22;53144;51.524;5.080;2023-04-03T05:21:34;1.56;91.04
66343;DHT22;53144;51.524;5.080;2023-04-03T05:24:00;1.58;91.07
66343;DHT22;53144;51.524;5.080;2023-04-03T05:26:31;1.59;90.91
66343;DHT22;53144;51.524;5.080;2023-04-03T05:28:56;1.58;90.84
66343;DHT22;53144;51.524;5.080;2023-04-03T05:31:22;1.60;90.89
66343;DHT22;53144;51.524;5.080;2023-04-03T05:33:49;1.64;90.82
66343;DHT22;53144;51.524;5.080;2023-04-03T05:36:15;1.64;90.54
66343;DHT22;53144;51.524;5.080;2023-04-03T05:38:40;1.60;90.76
66343;DHT22;53144;51.524;5.080;2023-04-03T05:41:05;1.66;90.38
66343;DHT22;53144;51.524;5.080;2023-04-03T05:43:31;1.74;90.31
66343;DHT22;53144;51.524;5.080;2023-04-03T05:45:56;1.69;90.33
66343;DHT22;53144;51.524;5.080;2023-04-03T05:48:22;1.70;90.52
66343;DHT22;53144;51.524;5.080;2023-04-03T05:50:47;1.70;90.25
66343;DHT22;53144;51.524;5.080;2023-04-03T05:53:18;1.66;90.48
66343;DHT22;53144;51.524;5.080;2023-04-03T05:55:45;1.69;90.58
66343;DHT22;53144;51.524;5.080;2023-04-03T05:58:11;1.67;90.63
66343;DHT22;53144;51.524;5.080;2023-04-03T06:00:36;1.76;90.70
66343;DHT22;53144;51.524;5.080;2023-04-03T06:03:02;1.87;90.09
66343;DHT22;53144;51.524;5.080;2023-04-03T06:05:27;1.84;90.11
66343;DHT22;53144;51.524;5.080;2023-04-03T06:07:53;1.81;90.28
66343;DHT22;53144;51.524;5.080;2023-04-03T06:10:18;1.89;89.71
66343;DHT22;53144;51.524;5.080;2023-04-03T06:12:45;1.96;89.65
66343;DHT22;53144;51.524;5.080;2023-04-03T06:15:11;1.98;89.44
66343;DHT22;53144;51.524;5.080;2023-04-03T06:17:37;2.00;89.69
66343;DHT22;53144;51.524;5.080;2023-04-03T06:20:03;2.01;89.57
66343;DHT22;53144;51.524;5.080;2023-04-03T06:22:29;2.01;89.14
66343;DHT22;53144;51.524;5.080;2023-04-03T06:24:56;2.20;87.88
66343;DHT22;53144;51.524;5.080;2023-04-03T06:27:21;2.21;88.16
66343;DHT22;53144;51.524;5.080;2023-04-03T06:29:46;2.24;88.04
66343;DHT22;53144;51.524;5.080;2023-04-03T06:32:13;2.34;87.91
66343;DHT22;53144;51.524;5.080;2023-04-03T06:34:39;2.35;87.88
66343;DHT22;53144;51.524;5.080;2023-04-03T06:37:04;2.42;87.33
66343;DHT22;53144;51.524;5.080;2023-04-03T06:39:30;2.53;87.65
66343;DHT22;53144;51.524;5.080;2023-04-03T06:41:55;2.58;87.40
66343;DHT22;53144;51.524;5.080;2023-04-03T06:44:21;2.60;86.62
66343;DHT22;53144;51.524;5.080;2023-04-03T06:46:46;2.65;87.06
66343;DHT22;53144;51.524;5.080;2023-04-03T06:49:12;2.72;86.48
66343;DHT22;53144;51.524;5.080;2023-04-03T06:51:37;2.72;85.78
66343;DHT22;53144;51.524;5.080;2023-04-03T06:54:04;2.89;85.13
66343;DHT22;53144;51.524;5.080;2023-04-03T06:56:30;2.86;85.27
66343;DHT22;53144;51.524;5.080;2023-04-03T06:58:56;2.93;84.95
66343;DHT22;53144;51.524;5.080;2023-04-03T07:01:24;3.03;84.44
66343;DHT22;53144;51.524;5.080;2023-04-03T07:03:51;3.04;85.32
66343;DHT22;53144;51.524;5.080;2023-04-03T07:06:18;3.17;84.51
66343;DHT22;53144;51.524;5.080;2023-04-03T07:08:44;3.21;84.28
66343;DHT22;53144;51.524;5.080;2023-04-03T07:11:10;3.24;83.21
66343;DHT22;53144;51.524;5.080;2023-04-03T07:13:36;3.28;83.17
66343;DHT22;53144;51.524;5.080;2023-04-03T07:16:02;3.35;83.27
66343;DHT22;53144;51.524;5.080;2023-04-03T07:18:29;3.42;83.61
66343;DHT22;53144;51.524;5.080;2023-04-03T07:20:55;3.48;83.07
66343;DHT22;53144;51.524;5.080;2023-04-03T07:23:21;3.52;81.92
66343;DHT22;53144;51.524;5.080;2023-04-03T07:25:48;3.58;81.36
66343;DHT22;53144;51.524;5.080;2023-04-03T07:28:14;3.71;82.33
66343;DHT22;53144;51.524;5.080;2023-04-03T07:30:49;3.85;81.22
66343;DHT22;53144;51.524;5.080;2023-04-03T07:33:16;3.96;80.74
66343;DHT22;53144;51.524;5.080;2023-04-03T07:35:42;3.96;82.10
66343;DHT22;53144;51.524;5.080;2023-04-03T07:38:08;4.02;81.64
66343;DHT22;53144;51.524;5.080;2023-04-03T07:40:34;4.11;80.36
66343;DHT22;53144;51.524;5.080;2023-04-03T07:43:00;4.07;80.01
66343;DHT22;53144;51.524;5.080;2023-04-03T07:45:26;4.14;79.56
66343;DHT22;53144;51.524;5.080;2023-04-03T07:47:51;4.24;79.79
66343;DHT22;53144;51.524;5.080;2023-04-03T07:50:17;4.23;78.53
66343;DHT22;53144;51.524;5.080;2023-04-03T07:52:43;4.45;77.66
66343;DHT22;53144;51.524;5.080;2023-04-03T07:55:08;4.55;78.02
66343;DHT22;53144;51.524;5.080;2023-04-03T07:57:34;4.61;77.69
66343;DHT22;53144;51.524;5.080;2023-04-03T08:00:00;4.65;77.18
66343;DHT22;53144;51.524;5.080;2023-04-03T08:02:26;4.81;77.84
66343;DHT22;53144;51.524;5.080;2023-04-03T08:04:52;4.86;77.28
66343;DHT22;53144;51.524;5.080;2023-04-03T08:07:17;4.93;77.77
66343;DHT22;53144;51.524;5.080;2023-04-03T08:09:42;4.99;75.37
66343;DHT22;53144;51.524;5.080;2023-04-03T08:12:09;4.93;76.13
66343;DHT22;53144;51.524;5.080;2023-04-03T08:14:36;4.95;76.16
66343;DHT22;53144;51.524;5.080;2023-04-03T08:17:02;5.08;75.16
66343;DHT22;53144;51.524;5.080;2023-04-03T08:19:30;5.18;74.43
66343;DHT22;53144;51.524;5.080;2023-04-03T08:21:55;5.33;73.80
66343;DHT22;53144;51.524;5.080;2023-04-03T08:24:22;5.37;73.12
66343;DHT22;53144;51.524;5.080;2023-04-03T08:26:48;5.42;75.14
66343;DHT22;53144;51.524;5.080;2023-04-03T08:29:13;5.42;73.15
66343;DHT22;53144;51.524;5.080;2023-04-03T08:31:38;5.37;73.15
66343;DHT22;53144;51.524;5.080;2023-04-03T08:34:04;5.47;72.77
66343;DHT22;53144;51.524;5.080;2023-04-03T08:36:30;5.58;73.99
66343;DHT22;53144;51.524;5.080;2023-04-03T08:38:56;5.44;71.09
66343;DHT22;53144;51.524;5.080;2023-04-03T08:44:26;5.32;69.78
66343;DHT22;53144;51.524;5.080;2023-04-03T08:50:02;5.68;70.17
66343;DHT22;53144;51.524;5.080;2023-04-03T08:52:39;5.81;67.75
66343;DHT22;53144;51.524;5.080;2023-04-03T08:55:27;5.97;67.52
66343;DHT22;53144;51.524;5.080;2023-04-03T08:58:20;5.99;67.18
66343;DHT22;53144;51.524;5.080;2023-04-03T09:00:53;6.16;66.54
66343;DHT22;53144;51.524;5.080;2023-04-03T09:03:21;6.39;65.70
66343;DHT22;53144;51.524;5.080;2023-04-03T09:05:55;6.46;64.41
66343;DHT22;53144;51.524;5.080;2023-04-03T09:10:46;6.62;67.20
66343;DHT22;53144;51.524;5.080;2023-04-03T09:15:56;6.80;62.13
66343;DHT22;53144;51.524;5.080;2023-04-03T09:18:30;6.92;63.70
66343;DHT22;53144;51.524;5.080;2023-04-03T09:21:17;7.04;60.63
66343;DHT22;53144;51.524;5.080;2023-04-03T09:23:52;7.00;58.29
66343;DHT22;53144;51.524;5.080;2023-04-03T09:26:24;7.09;57.99
66343;DHT22;53144;51.524;5.080;2023-04-03T09:28:54;7.26;59.00
66343;DHT22;53144;51.524;5.080;2023-04-03T09:31:24;7.14;56.00
66343;DHT22;53144;51.524;5.080;2023-04-03T09:33:53;7.12;51.53
66343;DHT22;53144;51.524;5.080;2023-04-03T09:36:43;7.16;55.20
66343;DHT22;53144;51.524;5.080;2023-04-03T09:39:18;7.25;54.35
66343;DHT22;53144;51.524;5.080;2023-04-03T09:44:36;7.36;55.08
66343;DHT22;53144;51.524;5.080;2023-04-03T09:47:29;7.66;54.25
66343;DHT22;53144;51.524;5.080;2023-04-03T09:52:49;8.11;48.27
66343;DHT22;53144;51.524;5.080;2023-04-03T09:55:17;8.18;53.88
66343;DHT22;53144;51.524;5.080;2023-04-03T09:57:45;8.44;52.80
66343;DHT22;53144;51.524;5.080;2023-04-03T10:00:23;8.49;53.93
66343;DHT22;53144;51.524;5.080;2023-04-03T10:02:57;8.35;45.97
66343;DHT22;53144;51.524;5.080;2023-04-03T10:05:35;8.48;44.43
66343;DHT22;53144;51.524;5.080;2023-04-03T10:10:32;8.84;48.38
66343;DHT22;53144;51.524;5.080;2023-04-03T10:13:17;9.23;47.26
66343;DHT22;53144;51.524;5.080;2023-04-03T10:15:48;9.16;46.49
66343;DHT22;53144;51.524;5.080;2023-04-03T10:21:05;10.10;44.89
66343;DHT22;53144;51.524;5.080;2023-04-03T10:23:51;9.98;42.12
66343;DHT22;53144;51.524;5.080;2023-04-03T10:26:39;10.27;41.79
66343;DHT22;53144;51.524;5.080;2023-04-03T10:29:28;10.61;42.40
66343;DHT22;53144;51.524;5.080;2023-04-03T10:34:45;11.33;39.49
66343;DHT22;53144;51.524;5.080;2023-04-03T10:37:18;10.78;38.40
66343;DHT22;53144;51.524;5.080;2023-04-03T10:40:05;11.32;38.53
66343;DHT22;53144;51.524;5.080;2023-04-03T10:43:02;11.62;40.91
66343;DHT22;53144;51.524;5.080;2023-04-03T10:45:29;11.84;38.15
66343;DHT22;53144;51.524;5.080;2023-04-03T10:48:05;11.94;37.94
66343;DHT22;53144;51.524;5.080;2023-04-03T10:50:44;12.43;38.48
66343;DHT22;53144;51.524;5.080;2023-04-03T10:55:54;12.80;34.48
66343;DHT22;53144;51.524;5.080;2023-04-03T10:58:29;12.36;35.97
66343;DHT22;53144;51.524;5.080;2023-04-03T11:01:02;12.17;33.55
66343;DHT22;53144;51.524;5.080;2023-04-03T11:03:41;11.67;35.06
66343;DHT22;53144;51.524;5.080;2023-04-03T11:06:10;12.05;37.37
66343;DHT22;53144;51.524;5.080;2023-04-03T11:08:49;12.10;34.31
66343;DHT22;53144;51.524;5.080;2023-04-03T11:11:23;12.52;36.04
66343;DHT22;53144;51.524;5.080;2023-04-03T11:14:10;12.93;39.06
66343;DHT22;53144;51.524;5.080;2023-04-03T11:16:43;12.50;35.83
66343;DHT22;53144;51.524;5.080;2023-04-03T11:21:40;12.41;35.99
66343;DHT22;53144;51.524;5.080;2023-04-03T11:24:27;12.62;35.01
66343;DHT22;53144;51.524;5.080;2023-04-03T11:26:56;12.06;33.35
66343;DHT22;53144;51.524;5.080;2023-04-03T11:29:25;13.20;37.53
66343;DHT22;53144;51.524;5.080;2023-04-03T11:32:09;12.62;34.93
66343;DHT22;53144;51.524;5.080;2023-04-03T11:34:37;12.18;34.72
66343;DHT22;53144;51.524;5.080;2023-04-03T11:37:33;12.67;33.73
66343;DHT22;53144;51.524;5.080;2023-04-03T11:40:22;12.46;35.53
66343;DHT22;53144;51.524;5.080;2023-04-03T11:43:24;13.48;35.01
66343;DHT22;53144;51.524;5.080;2023-04-03T11:45:56;13.85;37.44
66343;DHT22;53144;51.524;5.080;2023-04-03T11:53:38;13.30;33.44
66343;DHT22;53144;51.524;5.080;2023-04-03T11:58:34;13.32;35.97
66343;DHT22;53144;51.524;5.080;2023-04-03T12:05:55;13.42;34.66
66343;DHT22;53144;51.524;5.080;2023-04-03T12:24:34;12.77;32.63
66343;DHT22;53144;51.524;5.080;2023-04-03T12:27:02;13.87;35.13
66343;DHT22;53144;51.524;5.080;2023-04-03T12:32:51;13.45;36.60
66343;DHT22;53144;51.524;5.080;2023-04-03T12:35:28;14.24;33.35
66343;DHT22;53144;51.524;5.080;2023-04-03T12:40:58;14.00;30.68
66343;DHT22;53144;51.524;5.080;2023-04-03T12:43:59;13.87;33.23
66343;DHT22;53144;51.524;5.080;2023-04-03T12:46:41;14.34;32.80
66343;DHT22;53144;51.524;5.080;2023-04-03T12:51:46;14.21;29.63
66343;DHT22;53144;51.524;5.080;2023-04-03T12:56:46;13.42;30.37
66343;DHT22;53144;51.524;5.080;2023-04-03T12:59:26;13.96;31.95
66343;DHT22;53144;51.524;5.080;2023-04-03T13:01:58;13.95;31.07
66343;DHT22;53144;51.524;5.080;2023-04-03T13:04:25;13.89;33.32
66343;DHT22;53144;51.524;5.080;2023-04-03T13:06:51;13.66;32.02
66343;DHT22;53144;51.524;5.080;2023-04-03T13:09:29;12.66;34.60
66343;DHT22;53144;51.524;5.080;2023-04-03T13:12:00;13.28;36.93
66343;DHT22;53144;51.524;5.080;2023-04-03T13:14:27;13.72;34.30
66343;DHT22;53144;51.524;5.080;2023-04-03T13:17:06;13.22;31.68
66343;DHT22;53144;51.524;5.080;2023-04-03T13:19:31;13.58;32.31
66343;DHT22;53144;51.524;5.080;2023-04-03T13:22:13;12.93;35.37
66343;DHT22;53144;51.524;5.080;2023-04-03T13:24:49;13.25;34.27
66343;DHT22;53144;51.524;5.080;2023-04-03T13:27:15;13.08;33.51
66343;DHT22;53144;51.524;5.080;2023-04-03T13:29:42;13.03;32.91
66343;DHT22;53144;51.524;5.080;2023-04-03T13:32:18;12.87;33.33
66343;DHT22;53144;51.524;5.080;2023-04-03T13:34:44;13.07;34.05
66343;DHT22;53144;51.524;5.080;2023-04-03T13:37:52;13.32;36.09
66343;DHT22;53144;51.524;5.080;2023-04-03T13:40:18;13.99;36.52
66343;DHT22;53144;51.524;5.080;2023-04-03T13:42:43;13.10;35.54
66343;DHT22;53144;51.524;5.080;2023-04-03T13:47:47;13.68;35.06
66343;DHT22;53144;51.524;5.080;2023-04-03T13:50:22;14.00;38.16
66343;DHT22;53144;51.524;5.080;2023-04-03T13:53:11;14.21;35.40
66343;DHT22;53144;51.524;5.080;2023-04-03T13:55:53;13.95;35.95
66343;DHT22;53144;51.524;5.080;2023-04-03T13:58:23;13.93;36.41
66343;DHT22;53144;51.524;5.080;2023-04-03T14:00:54;13.75;35.21
66343;DHT22;53144;51.524;5.080;2023-04-03T14:06:15;13.79;35.68
66343;DHT22;53144;51.524;5.080;2023-04-03T14:08:42;13.25;37.20
66343;DHT22;53144;51.524;5.080;2023-04-03T14:11:18;12.87;38.53
66343;DHT22;53144;51.524;5.080;2023-04-03T14:13:45;11.94;38.45
66343;DHT22;53144;51.524;5.080;2023-04-03T14:16:18;12.62;40.87
66343;DHT22;53144;51.524;5.080;2023-04-03T14:18:47;12.77;40.39
66343;DHT22;53144;51.524;5.080;2023-04-03T14:21:15;12.87;38.87
66343;DHT22;53144;51.524;5.080;2023-04-03T14:23:41;12.84;38.96
66343;DHT22;53144;51.524;5.080;2023-04-03T14:26:16;12.42;39.52
66343;DHT22;53144;51.524;5.080;2023-04-03T14:28:44;12.15;39.65
66343;DHT22;53144;51.524;5.080;2023-04-03T14:31:11;11.67;39.79
66343;DHT22;53144;51.524;5.080;2023-04-03T14:33:37;12.10;40.89
66343;DHT22;53144;51.524;5.080;2023-04-03T14:38:37;11.88;42.17
66343;DHT22;53144;51.524;5.080;2023-04-03T14:41:03;11.59;41.32
66343;DHT22;53144;51.524;5.080;2023-04-03T14:43:28;11.52;40.40
66343;DHT22;53144;51.524;5.080;2023-04-03T14:45:53;11.46;40.56
66343;DHT22;53144;51.524;5.080;2023-04-03T14:48:23;10.99;41.15
66343;DHT22;53144;51.524;5.080;2023-04-03T14:50:50;10.88;43.43
66343;DHT22;53144;51.524;5.080;2023-04-03T14:53:17;10.37;44.25
66343;DHT22;53144;51.524;5.080;2023-04-03T14:55:46;10.54;44.61
66343;DHT22;53144;51.524;5.080;2023-04-03T14:58:14;10.60;43.05
66343;DHT22;53144;51.524;5.080;2023-04-03T15:00:40;10.71;45.70
66343;DHT22;53144;51.524;5.080;2023-04-03T15:03:05;10.51;44.43
66343;DHT22;53144;51.524;5.080;2023-04-03T15:05:31;10.53;43.94
66343;DHT22;53144;51.524;5.080;2023-04-03T15:07:57;10.63;43.79
66343;DHT22;53144;51.524;5.080;2023-04-03T15:10:25;10.34;44.45
66343;DHT22;53144;51.524;5.080;2023-04-03T15:12:51;10.32;44.44
66343;DHT22;53144;51.524;5.080;2023-04-03T15:15:18;10.53;42.94
66343;DHT22;53144;51.524;5.080;2023-04-03T15:17:46;10.71;43.82
66343;DHT22;53144;51.524;5.080;2023-04-03T15:20:19;10.68;43.26
66343;DHT22;53144;51.524;5.080;2023-04-03T15:22:45;10.61;44.21
66343;DHT22;53144;51.524;5.080;2023-04-03T15:25:10;10.44;44.03
66343;DHT22;53144;51.524;5.080;2023-04-03T15:27:36;10.74;45.73
66343;DHT22;53144;51.524;5.080;2023-04-03T15:30:07;10.67;44.60
66343;DHT22;53144;51.524;5.080;2023-04-03T15:32:33;10.46;45.93
66343;DHT22;53144;51.524;5.080;2023-04-03T15:35:00;10.21;43.91
66343;DHT22;53144;51.524;5.080;2023-04-03T15:37:25;10.26;43.59
66343;DHT22;53144;51.524;5.080;2023-04-03T15:39:50;10.50;44.88
66343;DHT22;53144;51.524;5.080;2023-04-03T15:42:16;10.40;43.69
66343;DHT22;53144;51.524;5.080;2023-04-03T15:44:41;10.30;45.22
66343;DHT22;53144;51.524;5.080;2023-04-03T15:47:06;10.48;47.51
66343;DHT22;53144;51.524;5.080;2023-04-03T15:49:32;10.67;45.37
66343;DHT22;53144;51.524;5.080;2023-04-03T15:51:58;10.57;45.23
66343;DHT22;53144;51.524;5.080;2023-04-03T15:54:24;10.68;44.91
66343;DHT22;53144;51.524;5.080;2023-04-03T15:56:50;10.84;44.36
66343;DHT22;53144;51.524;5.080;2023-04-03T15:59:16;10.64;43.07
66343;DHT22;53144;51.524;5.080;2023-04-03T16:01:42;10.64;42.61
66343;DHT22;53144;51.524;5.080;2023-04-03T16:04:07;10.74;42.83
66343;DHT22;53144;51.524;5.080;2023-04-03T16:06:33;10.74;45.84
66343;DHT22;53144;51.524;5.080;2023-04-03T16:08:59;10.64;44.21
66343;DHT22;53144;51.524;5.080;2023-04-03T16:11:26;10.43;43.80
66343;DHT22;53144;51.524;5.080;2023-04-03T16:13:53;10.24;44.37
66343;DHT22;53144;51.524;5.080;2023-04-03T16:16:18;10.32;45.39
66343;DHT22;53144;51.524;5.080;2023-04-03T16:18:43;10.40;44.52
66343;DHT22;53144;51.524;5.080;2023-04-03T16:21:09;10.38;44.54
66343;DHT22;53144;51.524;5.080;2023-04-03T16:23:34;10.14;47.09
66343;DHT22;53144;51.524;5.080;2023-04-03T16:26:00;10.07;46.31
66343;DHT22;53144;51.524;5.080;2023-04-03T16:28:25;10.06;46.76
66343;DHT22;53144;51.524;5.080;2023-04-03T16:30:51;10.02;45.74
66343;DHT22;53144;51.524;5.080;2023-04-03T16:33:16;9.88;46.52
66343;DHT22;53144;51.524;5.080;2023-04-03T16:35:42;9.75;45.61
66343;DHT22;53144;51.524;5.080;2023-04-03T16:38:08;9.62;46.37
66343;DHT22;53144;51.524;5.080;2023-04-03T16:40:34;9.51;45.99
66343;DHT22;53144;51.524;5.080;2023-04-03T16:43:00;9.31;46.60
66343;DHT22;53144;51.524;5.080;2023-04-03T16:45:26;9.27;48.70
66343;DHT22;53144;51.524;5.080;2023-04-03T16:47:51;9.23;48.44
66343;DHT22;53144;51.524;5.080;2023-04-03T16:50:17;9.11;48.24
66343;DHT22;53144;51.524;5.080;2023-04-03T16:52:42;9.23;47.97
66343;DHT22;53144;51.524;5.080;2023-04-03T16:55:10;9.18;48.88
66343;DHT22;53144;51.524;5.080;2023-04-03T16:57:35;9.14;48.83
66343;DHT22;53144;51.524;5.080;2023-04-03T17:00:00;9.10;48.89
66343;DHT22;53144;51.524;5.080;2023-04-03T17:02:26;9.09;50.25
66343;DHT22;53144;51.524;5.080;2023-04-03T17:04:53;8.96;51.19
66343;DHT22;53144;51.524;5.080;2023-04-03T17:07:20;8.86;49.45
66343;DHT22;53144;51.524;5.080;2023-04-03T17:09:45;8.79;50.53
66343;DHT22;53144;51.524;5.080;2023-04-03T17:12:11;8.72;49.83
66343;DHT22;53144;51.524;5.080;2023-04-03T17:14:36;8.58;52.38